createdAt,value
2022-08-07T00:01:44.163Z,46.18
2022-08-07T00:04:24.398Z,46.14
2022-08-07T00:06:52.412Z,46.08
2022-08-07T00:09:21.365Z,45.96
2022-08-07T00:11:56.238Z,45.68
2022-08-07T00:14:29.865Z,45.41
2022-08-07T00:16:57.074Z,45.73
2022-08-07T00:19:25.919Z,45.30
2022-08-07T00:21:56.612Z,45.54
2022-08-07T00:24:28.157Z,45.49
2022-08-07T00:27:06.293Z,45.48
2022-08-07T00:29:33.560Z,45.39
2022-08-07T00:32:03.582Z,45.20
2022-08-07T00:34:32.191Z,45.29
2022-08-07T00:36:58.739Z,45.08
2022-08-07T00:39:25.893Z,45.35
2022-08-07T00:41:53.472Z,45.26
2022-08-07T00:44:20.308Z,45.51
2022-08-07T00:46:47.294Z,45.35
2022-08-07T00:50:16.760Z,45.66
2022-08-07T00:52:00.001Z,45.28
2022-08-07T00:54:26.361Z,45.43
2022-08-07T00:56:53.227Z,45.48
2022-08-07T00:59:20.220Z,45.47
2022-08-07T01:01:58.957Z,44.91
2022-08-07T01:04:25.371Z,45.35
2022-08-07T01:06:51.729Z,45.05
2022-08-07T01:10:05.260Z,45.12
2022-08-07T01:12:27.865Z,45.32
2022-08-07T01:14:50.769Z,45.04
2022-08-07T01:17:27.426Z,45.30
2022-08-07T01:19:55.338Z,45.50
2022-08-07T01:22:29.230Z,45.22
2022-08-07T01:24:56.001Z,45.06
2022-08-07T01:27:22.365Z,45.45
2022-08-07T01:29:50.669Z,45.64
2022-08-07T01:32:17.163Z,45.54
2022-08-07T01:34:47.450Z,46.17
2022-08-07T01:37:15.606Z,45.55
2022-08-07T01:39:46.916Z,45.61
2022-08-07T01:42:37.772Z,45.60
2022-08-07T01:44:59.831Z,45.54
2022-08-07T01:48:20.695Z,45.39
2022-08-07T01:50:13.075Z,45.18
2022-08-07T01:52:49.609Z,45.57
2022-08-07T01:55:22.264Z,45.73
2022-08-07T01:58:06.428Z,45.79
2022-08-07T02:00:45.257Z,45.42
2022-08-07T02:03:21.779Z,45.50
2022-08-07T02:05:59.495Z,45.60
2022-08-07T02:08:26.625Z,45.65
2022-08-07T02:10:55.001Z,45.76
2022-08-07T02:13:21.850Z,45.60
2022-08-07T02:16:08.190Z,45.39
2022-08-07T02:18:38.397Z,45.74
2022-08-07T02:21:13.737Z,45.74
2022-08-07T02:23:42.626Z,45.98
2022-08-07T02:26:33.885Z,45.47
2022-08-07T02:28:57.463Z,45.76
2022-08-07T02:31:29.129Z,45.65
2022-08-07T02:34:03.598Z,45.39
2022-08-07T02:36:32.720Z,45.75
2022-08-07T02:38:59.700Z,45.73
2022-08-07T02:41:26.164Z,45.82
2022-08-07T02:44:03.605Z,45.80
2022-08-07T02:46:31.636Z,45.63
2022-08-07T02:48:58.089Z,46.03
2022-08-07T02:51:41.691Z,45.71
2022-08-07T02:54:09.355Z,45.82
2022-08-07T02:56:35.712Z,45.75
2022-08-07T02:59:02.304Z,45.76
2022-08-07T03:01:35.538Z,46.00
2022-08-07T03:04:07.778Z,46.08
2022-08-07T03:06:39.456Z,45.86
2022-08-07T03:09:05.814Z,45.53
2022-08-07T03:11:32.912Z,45.69
2022-08-07T03:14:05.121Z,45.59
2022-08-07T03:16:31.478Z,46.24
2022-08-07T03:18:57.841Z,46.33
2022-08-07T03:21:24.214Z,46.31
2022-08-07T03:24:18.444Z,46.23
2022-08-07T03:26:51.262Z,45.85
2022-08-07T03:29:23.268Z,46.35
2022-08-07T03:31:54.015Z,46.56
2022-08-07T03:34:22.847Z,46.45
2022-08-07T03:36:53.786Z,46.33
2022-08-07T03:39:46.426Z,46.62
2022-08-07T03:42:06.646Z,46.86
2022-08-07T03:44:34.654Z,46.53
2022-08-07T03:47:11.429Z,46.65
2022-08-07T03:49:41.045Z,46.35
2022-08-07T03:52:07.420Z,46.51
2022-08-07T03:54:54.801Z,46.46
2022-08-07T03:58:34.342Z,46.58
2022-08-07T04:00:08.075Z,46.98
2022-08-07T04:02:36.910Z,46.87
2022-08-07T04:05:07.834Z,46.48
2022-08-07T04:07:41.815Z,46.78
2022-08-07T04:10:15.732Z,46.20
2022-08-07T04:12:46.125Z,46.87
2022-08-07T04:15:13.660Z,46.71
2022-08-07T04:18:31.373Z,46.49
2022-08-07T04:20:27.682Z,46.41
2022-08-07T04:23:01.509Z,46.50
2022-08-07T04:25:29.247Z,46.87
2022-08-07T04:28:00.786Z,46.80
2022-08-07T04:30:39.360Z,46.43
2022-08-07T04:33:13.861Z,46.63
2022-08-07T04:35:42.140Z,46.96
2022-08-07T04:38:08.595Z,47.22
2022-08-07T04:40:35.062Z,46.80
2022-08-07T04:43:03.364Z,47.12
2022-08-07T04:45:57.917Z,47.11
2022-08-07T04:48:16.784Z,47.23
2022-08-07T04:50:43.429Z,47.21
2022-08-07T04:53:39.945Z,47.23
2022-08-07T04:58:11.837Z,47.33
2022-08-07T05:01:37.601Z,47.19
2022-08-07T05:04:08.269Z,47.13
2022-08-07T05:06:43.667Z,47.29
2022-08-07T05:09:17.531Z,47.53
2022-08-07T05:12:04.748Z,47.83
2022-08-07T05:14:52.510Z,47.38
2022-08-07T05:17:51.989Z,47.70
2022-08-07T05:20:07.857Z,47.65
2022-08-07T05:22:36.120Z,47.36
2022-08-07T05:25:03.232Z,47.40
2022-08-07T05:28:16.139Z,47.63
2022-08-07T05:30:30.103Z,47.28
2022-08-07T05:32:59.575Z,47.27
2022-08-07T05:35:33.402Z,47.36
2022-08-07T05:38:09.831Z,47.39
2022-08-07T05:40:36.431Z,47.54
2022-08-07T05:43:02.809Z,47.39
2022-08-07T05:45:46.565Z,47.84
2022-08-07T05:48:14.326Z,47.38
2022-08-07T05:50:42.957Z,47.23
2022-08-07T05:54:09.679Z,47.34
2022-08-07T05:56:03.774Z,47.77
2022-08-07T05:58:36.751Z,47.64
2022-08-07T06:01:04.954Z,48.16
2022-08-07T06:03:53.287Z,47.70
2022-08-07T06:06:19.013Z,48.50
2022-08-07T06:08:46.723Z,48.56
2022-08-07T06:11:13.225Z,48.34
2022-08-07T06:14:12.583Z,48.24
2022-08-07T06:16:28.211Z,47.71
2022-08-07T06:18:56.047Z,48.09
2022-08-07T06:22:16.649Z,48.36
2022-08-07T06:24:37.937Z,48.25
2022-08-07T06:26:55.144Z,48.22
2022-08-07T06:29:21.509Z,48.33
2022-08-07T06:31:51.053Z,48.51
2022-08-07T06:34:19.836Z,47.71
2022-08-07T06:36:47.888Z,47.89
2022-08-07T06:40:17.715Z,47.70
2022-08-07T06:42:04.999Z,47.80
2022-08-07T06:44:33.840Z,47.26
2022-08-07T06:47:12.498Z,47.77
2022-08-07T06:49:50.794Z,47.76
2022-08-07T06:52:31.597Z,48.57
2022-08-07T06:55:34.502Z,48.77
2022-08-07T06:57:52.234Z,48.30
2022-08-07T07:00:21.249Z,48.02
2022-08-07T07:02:54.003Z,47.75
2022-08-07T07:06:02.440Z,48.16
2022-08-07T07:08:10.040Z,47.86
2022-08-07T07:10:38.958Z,48.05
2022-08-07T07:13:14.058Z,47.09
2022-08-07T07:15:40.432Z,47.93
2022-08-07T07:18:09.458Z,48.09
2022-08-07T07:20:36.584Z,47.77
2022-08-07T07:24:06.626Z,47.69
2022-08-07T07:26:32.529Z,48.30
2022-08-07T07:29:23.593Z,48.31
2022-08-07T07:31:22.380Z,47.31
2022-08-07T07:33:48.944Z,48.28
2022-08-07T07:36:23.144Z,47.41
2022-08-07T07:38:58.996Z,47.77
2022-08-07T07:41:30.948Z,47.41
2022-08-07T07:44:17.717Z,47.45
2022-08-07T07:46:55.718Z,47.83
2022-08-07T07:50:35.101Z,47.91
2022-08-07T07:52:13.163Z,47.68
2022-08-07T07:54:39.974Z,47.60
2022-08-07T07:57:16.928Z,47.47
2022-08-07T07:59:52.685Z,47.25
2022-08-07T08:02:33.908Z,47.55
2022-08-07T08:05:01.630Z,47.00
2022-08-07T08:07:35.916Z,47.55
2022-08-07T08:10:08.647Z,47.14
2022-08-07T08:12:51.590Z,47.11
2022-08-07T08:15:23.336Z,46.90
2022-08-07T08:17:57.357Z,47.76
2022-08-07T08:20:31.853Z,47.37
2022-08-07T08:22:58.566Z,47.29
2022-08-07T08:25:42.259Z,46.43
2022-08-07T08:28:09.469Z,46.77
2022-08-07T08:30:42.518Z,47.22
2022-08-07T08:33:10.589Z,46.47
2022-08-07T08:35:46.961Z,46.53
2022-08-07T08:38:16.171Z,46.44
2022-08-07T08:40:43.915Z,47.33
2022-08-07T08:43:13.755Z,47.63
2022-08-07T08:45:59.013Z,47.36
2022-08-07T08:48:32.379Z,47.04
2022-08-07T08:50:59.007Z,46.67
2022-08-07T08:53:29.838Z,47.27
2022-08-07T08:55:58.568Z,47.03
2022-08-07T08:58:29.016Z,47.29
2022-08-07T09:00:56.451Z,47.53
2022-08-07T09:03:23.576Z,47.30
2022-08-07T09:06:11.347Z,47.09
2022-08-07T09:08:39.304Z,47.13
2022-08-07T09:11:05.777Z,47.87
2022-08-07T09:13:36.946Z,47.84
2022-08-07T09:16:24.119Z,48.18
2022-08-07T09:18:53.374Z,48.32
2022-08-07T09:21:33.914Z,47.94
2022-08-07T09:24:32.969Z,48.39
2022-08-07T09:26:58.019Z,47.95
2022-08-07T09:30:05.170Z,48.16
2022-08-07T09:32:18.852Z,47.17
2022-08-07T09:34:53.966Z,47.43
2022-08-07T09:37:20.667Z,47.00
2022-08-07T09:40:07.040Z,47.56
2022-08-07T09:42:35.178Z,48.12
2022-08-07T09:47:24.851Z,47.77
2022-08-07T09:48:00.131Z,47.22
2022-08-07T09:50:30.315Z,47.42
2022-08-07T09:52:56.709Z,47.38
2022-08-07T09:55:29.252Z,47.92
2022-08-07T09:57:56.402Z,48.02
2022-08-07T10:00:24.310Z,48.53
2022-08-07T10:02:56.529Z,49.33
2022-08-07T10:05:59.101Z,48.83
2022-08-07T10:08:09.318Z,48.93
2022-08-07T10:11:00.254Z,47.89
2022-08-07T10:13:54.878Z,46.51
2022-08-07T10:16:08.639Z,48.61
2022-08-07T10:18:36.153Z,49.13
2022-08-07T10:21:02.527Z,48.34
2022-08-07T10:24:04.933Z,47.62
2022-08-07T10:26:15.224Z,47.46
2022-08-07T10:28:50.936Z,46.72
2022-08-07T10:31:18.600Z,47.54
2022-08-07T10:34:05.707Z,47.05
2022-08-07T10:36:31.320Z,46.65
2022-08-07T10:39:04.412Z,46.90
2022-08-07T10:41:47.391Z,47.11
2022-08-07T10:44:19.287Z,46.69
2022-08-07T10:46:54.923Z,46.83
2022-08-07T10:49:24.435Z,46.37
2022-08-07T10:52:12.942Z,46.88
2022-08-07T10:54:37.537Z,46.39
2022-08-07T10:57:04.660Z,45.97
2022-08-07T10:59:31.904Z,45.52
2022-08-07T11:02:11.838Z,45.80
2022-08-07T11:04:39.054Z,46.06
2022-08-07T11:07:05.565Z,45.82
2022-08-07T11:10:09.210Z,45.37
2022-08-07T11:12:37.123Z,45.10
2022-08-07T11:15:03.502Z,45.91
2022-08-07T11:17:45.215Z,45.43
2022-08-07T11:20:12.253Z,45.98
2022-08-07T11:22:45.835Z,45.76
2022-08-07T11:25:12.838Z,45.58
2022-08-07T11:28:02.434Z,45.99
2022-08-07T11:30:39.148Z,45.61
2022-08-07T11:33:14.177Z,45.70
2022-08-07T11:35:59.591Z,45.83
2022-08-07T11:38:28.384Z,45.71
2022-08-07T11:40:56.105Z,46.21
2022-08-07T11:43:29.777Z,46.33
2022-08-07T11:46:08.894Z,45.82
2022-08-07T11:48:35.754Z,46.13
2022-08-07T11:51:03.964Z,45.36
2022-08-07T11:53:35.632Z,45.59
2022-08-07T11:56:26.049Z,45.22
2022-08-07T11:58:49.898Z,46.00
2022-08-07T12:01:19.929Z,45.88
2022-08-07T12:03:48.317Z,45.73
2022-08-07T12:06:39.960Z,45.97
2022-08-07T12:11:20.380Z,45.19
2022-08-07T12:13:48.150Z,44.93
2022-08-07T12:16:16.107Z,45.37
2022-08-07T12:18:56.556Z,45.21
2022-08-07T12:21:55.884Z,45.10
2022-08-07T12:24:12.493Z,45.91
2022-08-07T12:26:55.631Z,45.38
2022-08-07T12:29:37.226Z,46.38
2022-08-07T12:32:05.419Z,46.21
2022-08-07T12:34:33.378Z,46.14
2022-08-07T12:36:59.740Z,45.86
2022-08-07T12:39:43.288Z,45.89
2022-08-07T12:42:13.137Z,45.93
2022-08-07T12:44:39.747Z,47.22
2022-08-07T12:47:11.373Z,46.83
2022-08-07T12:49:44.275Z,46.53
2022-08-07T12:52:19.319Z,46.02
2022-08-07T12:54:55.030Z,46.04
2022-08-07T12:57:23.008Z,45.91
2022-08-07T12:59:54.544Z,45.96
2022-08-07T13:02:22.021Z,46.19
2022-08-07T13:05:01.455Z,46.36
2022-08-07T13:08:12.602Z,46.53
2022-08-07T13:10:29.378Z,46.85
2022-08-07T13:13:01.343Z,46.75
2022-08-07T13:15:32.513Z,46.90
2022-08-07T13:17:59.533Z,46.77
2022-08-07T13:20:27.740Z,46.79
2022-08-07T13:22:54.335Z,46.75
2022-08-07T13:25:28.771Z,46.64
2022-08-07T13:28:12.531Z,46.52
2022-08-07T13:30:43.859Z,46.66
2022-08-07T13:34:14.399Z,46.24
2022-08-07T13:36:00.348Z,46.49
2022-08-07T13:38:27.986Z,47.33
2022-08-07T13:40:57.017Z,46.51
2022-08-07T13:43:25.863Z,46.42
2022-08-07T13:46:12.195Z,46.58
2022-08-07T13:48:40.755Z,46.94
2022-08-07T13:51:27.064Z,46.22
2022-08-07T13:54:00.464Z,46.22
2022-08-07T13:56:35.377Z,46.95
2022-08-07T13:59:10.401Z,46.39
2022-08-07T14:01:51.471Z,46.52
2022-08-07T14:04:29.914Z,46.57
2022-08-07T14:07:03.218Z,46.49
2022-08-07T14:10:01.933Z,46.65
2022-08-07T14:12:16.633Z,46.73
2022-08-07T14:14:53.856Z,46.86
2022-08-07T14:17:51.657Z,46.99
2022-08-07T14:20:41.675Z,46.82
2022-08-07T14:22:52.906Z,47.00
2022-08-07T14:25:19.257Z,46.40
2022-08-07T14:28:20.986Z,46.77
2022-08-07T14:30:33.440Z,46.82
2022-08-07T14:32:59.807Z,46.96
2022-08-07T14:35:45.412Z,46.71
2022-08-07T14:38:26.552Z,46.51
2022-08-07T14:40:57.508Z,46.44
2022-08-07T14:43:57.911Z,46.44
2022-08-07T14:46:10.792Z,46.59
2022-08-07T14:48:37.157Z,46.52
2022-08-07T14:51:03.531Z,46.27
2022-08-07T14:54:05.816Z,46.38
2022-08-07T14:56:30.132Z,46.47
2022-08-07T14:58:56.934Z,46.18
2022-08-07T15:01:23.299Z,46.39
2022-08-07T15:06:36.086Z,46.00
2022-08-07T15:09:03.448Z,45.79
2022-08-07T15:11:53.849Z,46.38
2022-08-07T15:14:30.647Z,45.94
2022-08-07T15:17:00.988Z,46.17
2022-08-07T15:20:30.878Z,46.45
2022-08-07T15:28:07.907Z,46.91
2022-08-07T15:30:32.818Z,47.18
2022-08-07T15:33:03.959Z,47.02
2022-08-07T15:36:04.932Z,46.81
2022-08-07T15:41:23.397Z,46.95
2022-08-07T15:44:04.505Z,46.72
2022-08-07T15:46:38.493Z,46.47
2022-08-07T15:49:16.400Z,46.65
2022-08-07T15:54:24.217Z,46.96
2022-08-07T15:56:52.724Z,46.62
2022-08-07T15:59:19.076Z,46.87
2022-08-07T16:01:45.467Z,47.15
2022-08-07T16:04:28.977Z,47.22
2022-08-07T16:06:58.432Z,46.79
2022-08-07T16:09:41.190Z,46.82
2022-08-07T16:12:12.252Z,46.83
2022-08-07T16:14:38.791Z,47.23
2022-08-07T16:17:14.826Z,47.01
2022-08-07T16:19:58.919Z,46.78
2022-08-07T16:22:33.399Z,46.93
2022-08-07T16:25:02.571Z,46.92
2022-08-07T16:27:39.829Z,46.94
2022-08-07T16:30:31.198Z,47.02
2022-08-07T16:32:54.224Z,46.65
2022-08-07T16:35:51.700Z,46.78
2022-08-07T16:38:09.451Z,46.89
2022-08-07T16:40:36.244Z,46.91
2022-08-07T16:43:22.488Z,46.80
2022-08-07T16:46:34.711Z,46.59
2022-08-07T16:48:53.670Z,46.69
2022-08-07T16:52:01.893Z,46.43
2022-08-07T16:54:09.638Z,46.56
2022-08-07T16:56:37.668Z,46.52
2022-08-07T16:59:10.853Z,46.58
2022-08-07T17:01:41.641Z,46.56
2022-08-07T17:04:12.362Z,46.50
2022-08-07T17:06:44.872Z,46.69
2022-08-07T17:09:14.154Z,46.46
2022-08-07T17:12:01.282Z,46.64
2022-08-07T17:14:28.047Z,46.55
2022-08-07T17:16:55.891Z,46.36
2022-08-07T17:20:00.898Z,46.57
2022-08-07T17:22:10.627Z,46.50
2022-08-07T17:24:37.075Z,47.01
2022-08-07T17:27:03.433Z,47.36
2022-08-07T17:30:14.284Z,46.89
2022-08-07T17:32:51.947Z,47.03
2022-08-07T17:35:50.146Z,47.29
2022-08-07T17:38:06.595Z,48.20
2022-08-07T17:40:35.279Z,48.46
2022-08-07T17:43:01.678Z,48.07
2022-08-07T17:45:28.081Z,48.38
2022-08-07T17:47:54.572Z,49.31
2022-08-07T17:50:21.687Z,48.70
2022-08-07T17:52:48.070Z,48.46
2022-08-07T17:55:14.425Z,49.03
2022-08-07T17:58:01.988Z,48.63
2022-08-07T18:00:34.721Z,47.97
2022-08-07T18:03:17.986Z,48.40
2022-08-07T18:06:01.814Z,47.96
2022-08-07T18:08:31.225Z,47.84
2022-08-07T18:12:07.730Z,47.25
2022-08-07T18:13:44.008Z,47.91
2022-08-07T18:16:11.976Z,47.56
2022-08-07T18:21:03.317Z,47.36
2022-08-07T18:21:51.820Z,46.97
2022-08-07T18:24:11.748Z,47.04
2022-08-07T18:26:58.092Z,47.29
2022-08-07T18:30:06.795Z,47.23
2022-08-07T18:32:11.068Z,47.41
2022-08-07T18:35:01.019Z,46.93
2022-08-07T18:38:56.458Z,46.55
2022-08-07T18:40:40.545Z,46.63
2022-08-07T18:42:56.466Z,46.87
2022-08-07T18:45:44.993Z,46.38
2022-08-07T18:48:09.434Z,46.01
2022-08-07T18:50:43.839Z,46.82
2022-08-07T18:53:13.887Z,46.59
2022-08-07T18:55:42.964Z,46.38
2022-08-07T18:58:22.675Z,46.16
2022-08-07T19:00:54.182Z,46.70
2022-08-07T19:03:36.154Z,46.64
2022-08-07T19:06:05.158Z,46.45
2022-08-07T19:08:31.570Z,46.46
2022-08-07T19:10:58.302Z,46.63
2022-08-07T19:13:24.670Z,46.54
2022-08-07T19:16:02.724Z,46.19
2022-08-07T19:18:37.390Z,46.16
2022-08-07T19:21:44.287Z,45.72
2022-08-07T19:24:00.148Z,45.57
2022-08-07T19:26:28.925Z,45.13
2022-08-07T19:30:57.628Z,45.30
2022-08-07T19:32:10.927Z,45.08
2022-08-07T19:34:34.531Z,44.74
2022-08-07T19:37:09.909Z,44.63
2022-08-07T19:39:58.006Z,44.13
2022-08-07T19:42:29.529Z,44.14
2022-08-07T19:44:56.994Z,44.22
2022-08-07T19:47:27.740Z,44.07
2022-08-07T19:49:58.044Z,43.66
2022-08-07T19:52:25.396Z,44.22
2022-08-07T19:54:56.375Z,43.99
2022-08-07T19:58:01.760Z,43.84
2022-08-07T20:00:10.345Z,43.60
2022-08-07T20:02:38.931Z,44.02
2022-08-07T20:05:07.629Z,43.43
2022-08-07T20:07:45.904Z,43.13
2022-08-07T20:10:35.219Z,43.20
2022-08-07T20:13:00.726Z,43.54
2022-08-07T20:15:33.159Z,43.78
2022-08-07T20:18:04.448Z,43.55
2022-08-07T20:20:30.901Z,43.98
2022-08-07T20:22:57.268Z,44.58
2022-08-07T20:25:23.634Z,44.82
2022-08-07T20:27:58.080Z,45.16
2022-08-07T20:30:29.613Z,45.68
2022-08-07T20:32:57.316Z,45.81
2022-08-07T20:35:27.087Z,45.76
2022-08-07T20:37:58.785Z,46.21
2022-08-07T20:40:32.437Z,46.09
2022-08-07T20:43:00.968Z,45.99
2022-08-07T20:45:33.457Z,46.03
2022-08-07T20:48:28.852Z,46.43
2022-08-07T20:50:56.992Z,46.30
2022-08-07T20:53:25.987Z,45.81
2022-08-07T20:56:10.478Z,46.48
2022-08-07T20:58:36.855Z,46.43
2022-08-07T21:01:04.825Z,46.85
2022-08-07T21:03:31.461Z,46.61
2022-08-07T21:06:01.338Z,47.06
2022-08-07T21:08:32.338Z,47.53
2022-08-07T21:11:04.735Z,47.55
2022-08-07T21:13:57.110Z,47.63
2022-08-07T21:16:17.441Z,47.58
2022-08-07T21:18:46.113Z,48.01
2022-08-07T21:21:16.725Z,48.82
2022-08-07T21:23:50.393Z,48.95
2022-08-07T21:26:17.155Z,48.61
2022-08-07T21:28:49.268Z,48.77
2022-08-07T21:31:16.930Z,48.97
2022-08-07T21:34:03.265Z,49.24
2022-08-07T21:36:33.186Z,48.95
2022-08-07T21:38:59.591Z,49.45
2022-08-07T21:41:26.369Z,49.77
2022-08-07T21:43:56.129Z,49.51
2022-08-07T21:46:25.009Z,49.59
2022-08-07T21:48:57.938Z,49.75
2022-08-07T21:51:25.099Z,49.30
2022-08-07T21:53:52.795Z,49.52
2022-08-07T21:56:37.675Z,50.20
2022-08-07T21:59:06.312Z,50.09
2022-08-07T22:02:10.703Z,50.20
2022-08-07T22:04:20.370Z,49.88
2022-08-07T22:06:49.870Z,50.00
2022-08-07T22:09:17.920Z,49.26
2022-08-07T22:12:05.276Z,48.98
2022-08-07T22:14:36.329Z,48.93
2022-08-07T22:17:03.931Z,49.10
2022-08-07T22:19:30.593Z,49.09
2022-08-07T22:22:02.143Z,48.69
2022-08-07T22:24:33.031Z,48.86
2022-08-07T22:26:59.697Z,49.38
2022-08-07T22:29:38.081Z,49.49
2022-08-07T22:32:13.048Z,48.84
2022-08-07T22:34:49.787Z,48.56
2022-08-07T22:37:19.602Z,48.50
2022-08-07T22:39:53.149Z,48.47
2022-08-07T22:42:25.885Z,48.14
2022-08-07T22:45:21.741Z,48.33
2022-08-07T22:47:52.696Z,48.00
2022-08-07T22:50:20.918Z,47.64
2022-08-07T22:52:55.268Z,48.53
2022-08-07T22:55:23.390Z,48.54
2022-08-07T22:57:56.670Z,49.03
2022-08-07T23:00:28.571Z,48.87
2022-08-07T23:02:55.549Z,48.89
2022-08-07T23:06:09.268Z,48.72
2022-08-07T23:08:22.325Z,48.62
2022-08-07T23:10:56.401Z,48.08
2022-08-07T23:13:29.369Z,47.57
2022-08-07T23:16:07.028Z,47.07
2022-08-07T23:18:35.076Z,46.76
2022-08-07T23:21:08.610Z,46.73
2022-08-07T23:24:05.485Z,46.38
2022-08-07T23:26:23.332Z,46.27
2022-08-07T23:28:54.454Z,46.26
2022-08-07T23:32:50.161Z,46.24
2022-08-07T23:34:34.161Z,45.87
2022-08-07T23:37:20.512Z,46.87
2022-08-07T23:39:41.730Z,47.17
2022-08-07T23:42:08.146Z,46.56
2022-08-07T23:44:34.506Z,46.53
2022-08-07T23:47:00.872Z,46.80
2022-08-07T23:49:42.269Z,46.50
2022-08-07T23:53:02.037Z,46.32
2022-08-07T23:54:59.927Z,45.95
2022-08-07T23:57:27.719Z,46.47
